Känerkinden
Datum - Zeit
TemperaturTaupunktFeuchteSolar Wind aus Richtung WindböenLuftdruck (QFF)RegenRegenstärkeTrend
05.05.2026 - 00.00Uhr11.1 °C9.0 °C87 %0.0 W/m²1.4 km/hOsten3.2 km/h1011.4 hPa0.0 mm0.0 mm/hwechselhaft
05.05.2026 - 00.05Uhr10.9 °C8.8 °C87 %0.0 W/m²0.9 km/hOsten3.2 km/h1011.4 hPa0.0 mm0.0 mm/hwechselhaft
05.05.2026 - 00.10Uhr10.8 °C8.7 °C87 %0.0 W/m²0.7 km/hOsten3.2 km/h1011.4 hPa0.0 mm0.0 mm/hwechselhaft
05.05.2026 - 00.15Uhr10.7 °C8.6 °C87 %0.0 W/m²0.0 km/hOsten0.0 km/h1011.4 hPa0.0 mm0.0 mm/hwechselhaft
05.05.2026 - 00.20Uhr10.6 °C8.5 °C87 %0.0 W/m²2.6 km/hOsten6.5 km/h1011.3 hPa0.0 mm0.0 mm/hwechselhaft
05.05.2026 - 00.25Uhr10.5 °C8.4 °C87 %0.0 W/m²6.8 km/hOsten11.2 km/h1011.2 hPa0.0 mm0.0 mm/hwechselhaft
05.05.2026 - 00.30Uhr10.4 °C8.5 °C88 %0.0 W/m²7.5 km/hOsten9.7 km/h1011.2 hPa0.0 mm0.0 mm/hwechselhaft
05.05.2026 - 00.35Uhr10.3 °C8.4 °C88 %0.0 W/m²8.2 km/hOst-SO11.2 km/h1011.2 hPa0.0 mm0.0 mm/hwechselhaft
05.05.2026 - 00.40Uhr10.3 °C8.5 °C88 %0.0 W/m²5.1 km/hOsten9.7 km/h1011.1 hPa0.0 mm0.0 mm/hwechselhaft
05.05.2026 - 00.45Uhr10.2 °C8.5 °C89 %0.0 W/m²3.8 km/hOsten7.9 km/h1011.2 hPa0.0 mm0.0 mm/hwechselhaft
05.05.2026 - 00.50Uhr10.2 °C8.4 °C89 %0.0 W/m²2.1 km/hOsten6.5 km/h1011.1 hPa0.0 mm0.0 mm/hwechselhaft
05.05.2026 - 00.55Uhr10.2 °C8.4 °C89 %0.0 W/m²0.8 km/hOsten3.2 km/h1011.2 hPa0.0 mm0.0 mm/hwechselhaft
05.05.2026 - 01.00Uhr10.1 °C8.4 °C89 %0.0 W/m²0.0 km/hOsten0.0 km/h1011.1 hPa0.0 mm0.0 mm/hwechselhaft
05.05.2026 - 01.05Uhr10.1 °C8.2 °C88 %0.0 W/m²0.0 km/hOsten0.0 km/h1011.1 hPa0.0 mm0.0 mm/hwechselhaft
05.05.2026 - 01.10Uhr10.0 °C8.2 °C88 %0.0 W/m²0.0 km/hOsten0.0 km/h1011.1 hPa0.0 mm0.0 mm/hwechselhaft
05.05.2026 - 01.15Uhr9.9 °C8.2 °C89 %0.0 W/m²0.0 km/hOsten0.0 km/h1011.1 hPa0.0 mm0.0 mm/hwechselhaft
05.05.2026 - 01.20Uhr9.8 °C8.1 °C89 %0.0 W/m²0.0 km/hOsten0.0 km/h1011.0 hPa0.0 mm0.0 mm/hwechselhaft
05.05.2026 - 01.25Uhr9.8 °C8.1 °C89 %0.0 W/m²0.0 km/hOsten0.0 km/h1010.9 hPa0.0 mm0.0 mm/hwechselhaft
05.05.2026 - 01.30Uhr9.8 °C8.1 °C89 %0.0 W/m²0.0 km/hOsten0.0 km/h1010.9 hPa0.0 mm0.0 mm/hwechselhaft
05.05.2026 - 01.35Uhr9.8 °C8.1 °C89 %0.0 W/m²0.0 km/hOsten0.0 km/h1010.9 hPa0.0 mm0.0 mm/hwechselhaft
05.05.2026 - 01.40Uhr9.7 °C8.0 °C89 %0.0 W/m²0.0 km/hOsten0.0 km/h1010.8 hPa0.0 mm0.0 mm/hwechselhaft
05.05.2026 - 01.45Uhr9.7 °C8.0 °C89 %0.0 W/m²0.0 km/hOsten0.0 km/h1010.8 hPa0.0 mm0.0 mm/hwechselhaft
05.05.2026 - 01.50Uhr9.7 °C8.0 °C89 %0.0 W/m²0.0 km/hOsten0.0 km/h1010.8 hPa0.0 mm0.0 mm/hwechselhaft
05.05.2026 - 01.55Uhr9.7 °C8.0 °C89 %0.0 W/m²0.0 km/hOsten0.0 km/h1010.7 hPa0.0 mm0.0 mm/hwechselhaft
05.05.2026 - 02.00Uhr9.7 °C8.0 °C90 %0.0 W/m²0.0 km/hOsten0.0 km/h1010.6 hPa0.0 mm0.0 mm/hwechselhaft
05.05.2026 - 02.05Uhr9.6 °C8.0 °C90 %0.0 W/m²0.0 km/hOsten0.0 km/h1010.6 hPa0.0 mm0.0 mm/hwechselhaft
05.05.2026 - 02.10Uhr9.6 °C8.0 °C89 %0.0 W/m²0.0 km/hOsten0.0 km/h1010.7 hPa0.0 mm0.0 mm/hwechselhaft
05.05.2026 - 02.15Uhr9.6 °C7.8 °C89 %0.0 W/m²0.0 km/hOsten0.0 km/h1010.6 hPa0.0 mm0.0 mm/hwechselhaft
05.05.2026 - 02.20Uhr9.4 °C7.8 °C89 %0.0 W/m²0.0 km/hOsten0.0 km/h1010.5 hPa0.0 mm0.0 mm/hwechselhaft
05.05.2026 - 02.25Uhr9.4 °C7.8 °C90 %0.0 W/m²0.0 km/hOsten0.0 km/h1010.5 hPa0.0 mm0.0 mm/hwechselhaft
05.05.2026 - 02.30Uhr9.4 °C7.8 °C90 %0.0 W/m²0.0 km/hOsten0.0 km/h1010.5 hPa0.0 mm0.0 mm/hwechselhaft
05.05.2026 - 02.35Uhr9.4 °C7.8 °C90 %0.0 W/m²0.0 km/hOsten0.0 km/h1010.4 hPa0.0 mm0.0 mm/hwechselhaft
05.05.2026 - 02.40Uhr9.5 °C7.9 °C90 %0.0 W/m²0.0 km/hOsten0.0 km/h1010.3 hPa0.0 mm0.0 mm/hwechselhaft
05.05.2026 - 02.45Uhr9.5 °C8.0 °C91 %0.0 W/m²0.0 km/hOsten0.0 km/h1010.3 hPa0.0 mm0.0 mm/hwechselhaft
05.05.2026 - 02.50Uhr9.6 °C8.2 °C91 %0.0 W/m²0.0 km/hOsten0.0 km/h1010.2 hPa0.0 mm0.0 mm/hwechselhaft
05.05.2026 - 02.55Uhr9.6 °C8.2 °C91 %0.0 W/m²0.0 km/hOsten0.0 km/h1010.1 hPa0.0 mm0.0 mm/hwechselhaft
05.05.2026 - 03.00Uhr9.6 °C8.2 °C91 %0.0 W/m²0.0 km/hOsten0.0 km/h1010.1 hPa0.0 mm0.0 mm/hwechselhaft
05.05.2026 - 03.05Uhr9.6 °C8.2 °C91 %0.0 W/m²0.0 km/hOsten0.0 km/h1010.0 hPa0.0 mm0.0 mm/hwechselhaft
05.05.2026 - 03.10Uhr9.6 °C8.2 °C91 %0.0 W/m²0.0 km/hOsten0.0 km/h1009.9 hPa0.0 mm0.0 mm/hwechselhaft
05.05.2026 - 03.15Uhr9.6 °C8.2 °C91 %0.0 W/m²0.0 km/hOsten0.0 km/h1009.8 hPa0.0 mm0.0 mm/hwechselhaft
05.05.2026 - 03.20Uhr9.6 °C8.2 °C91 %0.0 W/m²0.0 km/hOsten0.0 km/h1009.7 hPa0.0 mm0.0 mm/hwechselhaft
05.05.2026 - 03.25Uhr9.5 °C8.1 °C91 %0.0 W/m²0.0 km/hOsten0.0 km/h1009.7 hPa0.0 mm0.0 mm/hwechselhaft
05.05.2026 - 03.30Uhr9.5 °C8.1 °C91 %0.0 W/m²0.0 km/hOsten0.0 km/h1009.7 hPa0.0 mm0.0 mm/hwechselhaft
05.05.2026 - 03.35Uhr9.4 °C8.0 °C91 %0.0 W/m²0.0 km/hOsten0.0 km/h1009.6 hPa0.0 mm0.0 mm/hwechselhaft
05.05.2026 - 03.40Uhr9.4 °C8.0 °C91 %0.0 W/m²0.0 km/hOsten0.0 km/h1009.6 hPa0.0 mm0.0 mm/hwechselhaft
05.05.2026 - 03.45Uhr9.4 °C8.0 °C91 %0.0 W/m²0.0 km/hOsten0.0 km/h1009.6 hPa0.0 mm0.0 mm/hwechselhaft
05.05.2026 - 03.50Uhr9.3 °C8.0 °C91 %0.0 W/m²0.0 km/hOsten0.0 km/h1009.6 hPa0.0 mm0.0 mm/hwechselhaft
05.05.2026 - 03.55Uhr9.3 °C7.9 °C91 %0.0 W/m²0.0 km/hOsten0.0 km/h1009.6 hPa0.0 mm0.0 mm/hwechselhaft
05.05.2026 - 04.00Uhr9.3 °C7.9 °C91 %0.0 W/m²0.0 km/hOsten0.0 km/h1009.6 hPa0.0 mm0.0 mm/hwechselhaft
05.05.2026 - 04.05Uhr9.3 °C7.9 °C91 %0.0 W/m²0.0 km/hOsten0.0 km/h1009.4 hPa0.0 mm0.0 mm/hRegen
05.05.2026 - 04.10Uhr9.3 °C7.9 °C91 %0.0 W/m²2.0 km/hOsten6.5 km/h1009.4 hPa0.0 mm0.0 mm/hRegen
05.05.2026 - 04.15Uhr9.3 °C7.9 °C91 %0.0 W/m²2.5 km/hOsten6.5 km/h1009.4 hPa0.0 mm0.0 mm/hRegen
05.05.2026 - 04.20Uhr9.3 °C7.9 °C91 %0.0 W/m²3.1 km/hOsten7.9 km/h1009.5 hPa0.0 mm0.0 mm/hRegen
05.05.2026 - 04.25Uhr9.3 °C7.9 °C91 %0.0 W/m²0.8 km/hOst-SO3.2 km/h1009.4 hPa0.0 mm0.0 mm/hRegen
05.05.2026 - 04.30Uhr9.3 °C7.9 °C91 %0.0 W/m²0.0 km/hOst-SO0.0 km/h1009.3 hPa0.0 mm0.0 mm/hRegen
05.05.2026 - 04.35Uhr9.2 °C7.8 °C91 %0.0 W/m²0.5 km/hOst-SO3.2 km/h1009.2 hPa0.0 mm0.0 mm/hRegen
05.05.2026 - 04.40Uhr9.2 °C7.8 °C91 %0.0 W/m²2.7 km/hOst-SO6.5 km/h1009.1 hPa0.0 mm0.0 mm/hRegen
05.05.2026 - 04.45Uhr9.2 °C7.8 °C91 %0.0 W/m²0.1 km/hOst-SO1.4 km/h1009.1 hPa0.0 mm0.0 mm/hRegen
05.05.2026 - 04.50Uhr9.3 °C7.9 °C91 %0.0 W/m²1.6 km/hOst-SO3.2 km/h1009.1 hPa0.0 mm0.0 mm/hRegen
05.05.2026 - 04.55Uhr9.3 °C7.9 °C91 %0.0 W/m²0.6 km/hOst-SO1.4 km/h1009.1 hPa0.0 mm0.0 mm/hRegen
05.05.2026 - 05.00Uhr9.3 °C7.9 °C91 %0.0 W/m²0.0 km/hOst-SO0.0 km/h1009.0 hPa0.0 mm0.0 mm/hRegen
05.05.2026 - 05.05Uhr9.3 °C8.0 °C92 %0.0 W/m²0.0 km/hOst-SO0.0 km/h1009.1 hPa0.0 mm0.0 mm/hRegen
05.05.2026 - 05.10Uhr9.3 °C8.1 °C92 %0.0 W/m²0.0 km/hOst-SO0.0 km/h1009.0 hPa0.0 mm0.0 mm/hRegen
05.05.2026 - 05.15Uhr9.3 °C8.0 °C92 %0.0 W/m²0.0 km/hOst-SO0.0 km/h1009.0 hPa0.0 mm0.0 mm/hRegen
05.05.2026 - 05.20Uhr9.3 °C8.0 °C91 %0.0 W/m²6.9 km/hOst-SO9.7 km/h1009.0 hPa0.0 mm0.0 mm/hRegen
05.05.2026 - 05.25Uhr9.4 °C8.2 °C92 %0.0 W/m²7.3 km/hOst-SO13.0 km/h1008.8 hPa0.0 mm0.0 mm/hRegen
05.05.2026 - 05.30Uhr9.6 °C8.4 °C92 %0.0 W/m²6.3 km/hOst-SO9.7 km/h1008.7 hPa0.0 mm0.0 mm/hRegen
05.05.2026 - 05.35Uhr9.7 °C8.5 °C92 %0.0 W/m²5.8 km/hOst-SO9.7 km/h1008.7 hPa0.0 mm0.0 mm/hRegen
05.05.2026 - 05.40Uhr9.7 °C8.5 °C92 %0.0 W/m²5.9 km/hOst-SO7.9 km/h1008.7 hPa0.0 mm0.0 mm/hRegen
05.05.2026 - 05.45Uhr9.8 °C8.6 °C92 %0.0 W/m²6.0 km/hOst-SO11.2 km/h1008.6 hPa0.0 mm0.0 mm/hRegen
05.05.2026 - 05.50Uhr9.8 °C8.5 °C92 %0.0 W/m²6.6 km/hOst-SO9.7 km/h1008.7 hPa0.0 mm0.0 mm/hRegen
05.05.2026 - 05.55Uhr9.9 °C8.5 °C91 %0.0 W/m²5.8 km/hOst-SO9.7 km/h1008.8 hPa0.0 mm0.0 mm/hRegen
05.05.2026 - 06.00Uhr9.9 °C8.5 °C91 %0.0 W/m²0.9 km/hOst-SO3.2 km/h1008.8 hPa0.0 mm0.0 mm/hRegen
05.05.2026 - 06.05Uhr9.9 °C8.5 °C91 %5.0 W/m²4.1 km/hOst-SO9.7 km/h1008.9 hPa0.0 mm0.0 mm/hRegen
05.05.2026 - 06.10Uhr9.9 °C8.5 °C91 %5.0 W/m²5.8 km/hOst-SO13.0 km/h1008.9 hPa0.0 mm0.0 mm/hRegen
05.05.2026 - 06.15Uhr9.9 °C8.5 °C91 %9.0 W/m²5.7 km/hOst-SO9.7 km/h1008.9 hPa0.0 mm0.0 mm/hRegen
05.05.2026 - 06.20Uhr10.1 °C8.7 °C91 %12.0 W/m²8.8 km/hOst-SO13.0 km/h1008.8 hPa0.0 mm0.0 mm/hRegen
05.05.2026 - 06.25Uhr10.1 °C8.7 °C91 %12.0 W/m²4.9 km/hOst-SO9.7 km/h1008.8 hPa0.0 mm0.0 mm/hRegen
05.05.2026 - 06.30Uhr10.2 °C8.8 °C91 %14.0 W/m²6.3 km/hOst-SO11.2 km/h1008.7 hPa0.0 mm0.0 mm/hRegen
05.05.2026 - 06.35Uhr10.2 °C8.7 °C91 %14.0 W/m²4.7 km/hOst-SO9.7 km/h1008.7 hPa0.0 mm0.0 mm/hRegen
05.05.2026 - 06.40Uhr10.2 °C8.7 °C90 %14.0 W/m²2.0 km/hSüdosten6.5 km/h1008.7 hPa0.0 mm0.0 mm/hRegen
05.05.2026 - 06.45Uhr10.3 °C8.7 °C90 %18.0 W/m²3.4 km/hSüdosten6.5 km/h1008.8 hPa0.0 mm0.0 mm/hRegen
05.05.2026 - 06.50Uhr10.3 °C8.7 °C90 %23.0 W/m²4.6 km/hOst-SO7.9 km/h1008.8 hPa0.0 mm0.0 mm/hRegen
05.05.2026 - 06.55Uhr10.3 °C8.7 °C90 %33.0 W/m²3.2 km/hOsten6.5 km/h1008.7 hPa0.0 mm0.0 mm/hRegen
05.05.2026 - 07.00Uhr10.3 °C8.7 °C90 %39.0 W/m²1.7 km/hOsten6.5 km/h1008.7 hPa0.0 mm0.0 mm/hRegen
05.05.2026 - 07.05Uhr10.4 °C8.8 °C90 %39.0 W/m²0.8 km/hOsten3.2 km/h1008.7 hPa0.0 mm0.0 mm/hRegen
05.05.2026 - 07.10Uhr10.4 °C8.7 °C90 %39.0 W/m²0.0 km/hOsten0.0 km/h1008.6 hPa0.0 mm0.0 mm/hRegen
05.05.2026 - 07.15Uhr10.4 °C8.8 °C90 %47.0 W/m²0.0 km/hOsten0.0 km/h1008.6 hPa0.0 mm0.0 mm/hRegen
05.05.2026 - 07.20Uhr10.4 °C8.8 °C90 %69.0 W/m²2.3 km/hOst-SO6.5 km/h1008.6 hPa0.0 mm0.0 mm/hRegen
05.05.2026 - 07.25Uhr10.4 °C8.8 °C90 %79.0 W/m²4.2 km/hOsten6.5 km/h1008.7 hPa0.0 mm0.0 mm/hRegen
05.05.2026 - 07.30Uhr10.5 °C8.9 °C90 %84.0 W/m²1.7 km/hOst-SO6.5 km/h1008.8 hPa0.0 mm0.0 mm/hRegen
05.05.2026 - 07.35Uhr10.6 °C8.9 °C90 %90.0 W/m²0.0 km/hOst-SO0.0 km/h1008.7 hPa0.0 mm0.0 mm/hRegen
05.05.2026 - 07.40Uhr10.6 °C8.9 °C89 %97.0 W/m²0.1 km/hOst-SO1.4 km/h1008.7 hPa0.0 mm0.0 mm/hRegen
05.05.2026 - 07.45Uhr10.7 °C9.0 °C89 %97.0 W/m²0.0 km/hOst-SO0.0 km/h1008.8 hPa0.0 mm0.0 mm/hRegen
05.05.2026 - 07.50Uhr10.7 °C9.0 °C89 %95.0 W/m²0.0 km/hOst-SO0.0 km/h1008.8 hPa0.0 mm0.0 mm/hRegen
05.05.2026 - 07.55Uhr10.8 °C9.2 °C90 %100.0 W/m²3.3 km/hOst-SO6.5 km/h1008.8 hPa0.0 mm0.0 mm/hRegen
05.05.2026 - 08.00Uhr10.9 °C9.3 °C90 %121.0 W/m²6.5 km/hWesten7.9 km/h1008.9 hPa0.0 mm0.0 mm/hRegen
05.05.2026 - 08.05Uhr11.0 °C9.3 °C89 %125.0 W/m²5.8 km/hWesten7.9 km/h1008.9 hPa0.0 mm0.0 mm/hbedeckt
05.05.2026 - 08.10Uhr11.1 °C9.4 °C89 %113.0 W/m²5.2 km/hWest-SW6.5 km/h1008.9 hPa0.0 mm0.0 mm/hbedeckt
05.05.2026 - 08.15Uhr11.0 °C9.3 °C89 %81.0 W/m²5.0 km/hWesten6.5 km/h1008.9 hPa0.0 mm0.0 mm/hbedeckt
05.05.2026 - 08.20Uhr11.0 °C9.3 °C89 %77.0 W/m²4.3 km/hWesten6.5 km/h1008.9 hPa0.0 mm0.0 mm/hbedeckt
05.05.2026 - 08.25Uhr11.1 °C9.4 °C89 %84.0 W/m²4.4 km/hWesten6.5 km/h1008.8 hPa0.0 mm0.0 mm/hbedeckt
05.05.2026 - 08.30Uhr11.1 °C9.4 °C89 %86.0 W/m²3.6 km/hWesten4.7 km/h1008.8 hPa0.0 mm0.0 mm/hbedeckt
05.05.2026 - 08.35Uhr11.1 °C9.4 °C89 %86.0 W/m²3.0 km/hWesten4.7 km/h1008.8 hPa0.0 mm0.0 mm/hbedeckt
05.05.2026 - 08.40Uhr11.1 °C9.4 °C89 %81.0 W/m²4.2 km/hWesten6.5 km/h1008.7 hPa0.0 mm0.0 mm/hbedeckt
05.05.2026 - 08.45Uhr11.1 °C9.4 °C89 %69.0 W/m²2.6 km/hWesten4.7 km/h1008.7 hPa0.0 mm0.0 mm/hbedeckt
05.05.2026 - 08.50Uhr11.2 °C9.5 °C89 %58.0 W/m²2.4 km/hWesten4.7 km/h1008.6 hPa0.0 mm0.0 mm/hbedeckt
05.05.2026 - 08.55Uhr11.2 °C9.5 °C89 %58.0 W/m²1.3 km/hWesten3.2 km/h1008.7 hPa0.0 mm0.0 mm/hbedeckt
05.05.2026 - 09.00Uhr11.2 °C9.5 °C89 %60.0 W/m²3.7 km/hWesten4.7 km/h1008.7 hPa0.0 mm0.0 mm/hbedeckt
05.05.2026 - 09.05Uhr11.2 °C9.4 °C89 %65.0 W/m²2.6 km/hWesten4.7 km/h1008.7 hPa0.2 mm0.0 mm/hRegen
05.05.2026 - 09.10Uhr11.3 °C9.6 °C89 %69.0 W/m²1.9 km/hWesten3.2 km/h1008.7 hPa0.0 mm0.0 mm/hRegen
05.05.2026 - 09.15Uhr11.3 °C9.6 °C89 %72.0 W/m²0.8 km/hWesten3.2 km/h1008.7 hPa0.0 mm0.0 mm/hRegen
05.05.2026 - 09.20Uhr11.3 °C9.5 °C88 %81.0 W/m²0.0 km/hWesten0.0 km/h1008.7 hPa0.3 mm1.3 mm/hRegen
05.05.2026 - 09.25Uhr11.3 °C9.4 °C88 %100.0 W/m²0.0 km/hWesten0.0 km/h1008.6 hPa0.0 mm1.3 mm/hRegen
05.05.2026 - 09.30Uhr11.3 °C9.5 °C89 %127.0 W/m²0.0 km/hWesten0.0 km/h1008.6 hPa0.2 mm1.5 mm/hRegen
05.05.2026 - 09.35Uhr11.4 °C9.7 °C89 %153.0 W/m²0.0 km/hWesten0.0 km/h1008.5 hPa0.0 mm1.5 mm/hRegen
05.05.2026 - 09.40Uhr11.4 °C9.7 °C89 %185.0 W/m²0.0 km/hWesten0.0 km/h1008.5 hPa0.0 mm1.5 mm/hRegen
05.05.2026 - 09.45Uhr11.4 °C9.7 °C89 %202.0 W/m²0.0 km/hWesten0.0 km/h1008.4 hPa0.0 mm1.0 mm/hRegen
05.05.2026 - 09.50Uhr11.6 °C9.8 °C89 %207.0 W/m²0.0 km/hWesten0.0 km/h1008.4 hPa0.0 mm0.0 mm/hRegen
05.05.2026 - 09.55Uhr11.6 °C9.7 °C88 %206.0 W/m²1.6 km/hWesten4.7 km/h1008.3 hPa0.0 mm0.0 mm/hRegen
05.05.2026 - 10.00Uhr11.7 °C9.8 °C88 %195.0 W/m²2.5 km/hWesten6.5 km/h1008.2 hPa0.0 mm0.0 mm/hRegen
05.05.2026 - 10.05Uhr11.8 °C9.9 °C88 %218.0 W/m²2.7 km/hNordwesten4.7 km/h1008.2 hPa0.0 mm0.0 mm/hRegen
05.05.2026 - 10.10Uhr11.9 °C9.9 °C88 %230.0 W/m²3.0 km/hNordwesten6.5 km/h1008.1 hPa0.0 mm0.0 mm/hRegen
05.05.2026 - 10.15Uhr12.0 °C9.9 °C87 %229.0 W/m²4.9 km/hWesten6.5 km/h1008.0 hPa0.0 mm0.0 mm/hRegen
05.05.2026 - 10.20Uhr12.1 °C10.0 °C87 %229.0 W/m²4.4 km/hWesten6.5 km/h1007.9 hPa0.0 mm0.0 mm/hRegen
05.05.2026 - 10.25Uhr12.1 °C9.9 °C86 %229.0 W/m²2.1 km/hWesten4.7 km/h1008.0 hPa0.0 mm0.0 mm/hRegen
05.05.2026 - 10.30Uhr12.2 °C9.9 °C86 %255.0 W/m²1.0 km/hWesten3.2 km/h1008.0 hPa0.0 mm0.0 mm/hRegen
05.05.2026 - 10.35Uhr12.2 °C9.9 °C86 %267.0 W/m²2.2 km/hNorden4.7 km/h1008.0 hPa0.0 mm0.0 mm/hRegen
05.05.2026 - 10.40Uhr12.3 °C10.0 °C86 %258.0 W/m²1.6 km/hWest-NW4.7 km/h1008.0 hPa0.0 mm0.0 mm/hRegen
05.05.2026 - 10.45Uhr12.5 °C10.4 °C87 %246.0 W/m²3.0 km/hWest-NW4.7 km/h1007.9 hPa0.0 mm0.0 mm/hRegen
05.05.2026 - 10.50Uhr12.6 °C10.3 °C86 %250.0 W/m²2.1 km/hWest-NW4.7 km/h1007.9 hPa0.0 mm0.0 mm/hRegen
05.05.2026 - 10.55Uhr12.6 °C10.1 °C85 %255.0 W/m²2.2 km/hWest-NW4.7 km/h1007.9 hPa0.0 mm0.0 mm/hRegen
05.05.2026 - 11.00Uhr12.7 °C10.2 °C85 %255.0 W/m²1.5 km/hWest-SW3.2 km/h1008.0 hPa0.0 mm0.0 mm/hRegen